sensor_id;sensor_type;location;lat;lon;timestamp;P1;durP1;ratioP1;P2;durP2;ratioP2
26686;SDS011;14298;50.900;4.648;2022-12-19T00:01:29;4.13;;;3.83;;
26686;SDS011;14298;50.900;4.648;2022-12-19T00:04:01;4.57;;;3.63;;
26686;SDS011;14298;50.900;4.648;2022-12-19T00:06:34;6.27;;;3.80;;
26686;SDS011;14298;50.900;4.648;2022-12-19T00:09:04;4.03;;;3.30;;
26686;SDS011;14298;50.900;4.648;2022-12-19T00:11:33;5.23;;;4.17;;
26686;SDS011;14298;50.900;4.648;2022-12-19T00:14:01;3.50;;;3.23;;
26686;SDS011;14298;50.900;4.648;2022-12-19T00:16:29;12.10;;;5.53;;
26686;SDS011;14298;50.900;4.648;2022-12-19T00:18:58;4.63;;;3.57;;
26686;SDS011;14298;50.900;4.648;2022-12-19T00:21:29;3.03;;;2.83;;
26686;SDS011;14298;50.900;4.648;2022-12-19T00:23:59;2.83;;;2.73;;
26686;SDS011;14298;50.900;4.648;2022-12-19T00:26:34;10.13;;;4.13;;
26686;SDS011;14298;50.900;4.648;2022-12-19T00:29:00;6.03;;;5.43;;
26686;SDS011;14298;50.900;4.648;2022-12-19T00:31:31;4.57;;;4.10;;
26686;SDS011;14298;50.900;4.648;2022-12-19T00:34:02;3.87;;;3.43;;
26686;SDS011;14298;50.900;4.648;2022-12-19T00:36:31;6.87;;;4.10;;
26686;SDS011;14298;50.900;4.648;2022-12-19T00:39:00;2.90;;;2.77;;
26686;SDS011;14298;50.900;4.648;2022-12-19T00:41:32;2.23;;;2.13;;
26686;SDS011;14298;50.900;4.648;2022-12-19T00:44:03;3.30;;;3.10;;
26686;SDS011;14298;50.900;4.648;2022-12-19T00:46:33;4.67;;;4.27;;
26686;SDS011;14298;50.900;4.648;2022-12-19T00:49:02;3.47;;;2.87;;
26686;SDS011;14298;50.900;4.648;2022-12-19T00:51:33;3.93;;;3.03;;
26686;SDS011;14298;50.900;4.648;2022-12-19T00:56:50;3.90;;;2.97;;
26686;SDS011;14298;50.900;4.648;2022-12-19T00:59:18;3.10;;;2.90;;
26686;SDS011;14298;50.900;4.648;2022-12-19T01:01:46;9.07;;;3.30;;
26686;SDS011;14298;50.900;4.648;2022-12-19T01:04:15;2.73;;;2.33;;
26686;SDS011;14298;50.900;4.648;2022-12-19T01:06:43;7.43;;;2.87;;
26686;SDS011;14298;50.900;4.648;2022-12-19T01:09:18;4.60;;;3.90;;
26686;SDS011;14298;50.900;4.648;2022-12-19T01:11:41;3.53;;;2.90;;
26686;SDS011;14298;50.900;4.648;2022-12-19T01:14:28;4.47;;;4.07;;
26686;SDS011;14298;50.900;4.648;2022-12-19T01:16:56;2.80;;;2.63;;
26686;SDS011;14298;50.900;4.648;2022-12-19T01:19:25;6.40;;;4.70;;
26686;SDS011;14298;50.900;4.648;2022-12-19T01:21:53;3.47;;;3.17;;
26686;SDS011;14298;50.900;4.648;2022-12-19T01:24:22;3.10;;;2.80;;
26686;SDS011;14298;50.900;4.648;2022-12-19T01:26:50;3.87;;;3.53;;
26686;SDS011;14298;50.900;4.648;2022-12-19T01:29:18;2.73;;;2.53;;
26686;SDS011;14298;50.900;4.648;2022-12-19T01:31:47;3.97;;;2.77;;
26686;SDS011;14298;50.900;4.648;2022-12-19T01:34:15;4.03;;;3.53;;
26686;SDS011;14298;50.900;4.648;2022-12-19T01:36:43;3.70;;;3.33;;
26686;SDS011;14298;50.900;4.648;2022-12-19T01:39:12;4.10;;;3.73;;
26686;SDS011;14298;50.900;4.648;2022-12-19T01:41:40;4.70;;;3.57;;
26686;SDS011;14298;50.900;4.648;2022-12-19T01:44:08;3.80;;;3.53;;
26686;SDS011;14298;50.900;4.648;2022-12-19T01:46:40;6.40;;;3.57;;
26686;SDS011;14298;50.900;4.648;2022-12-19T01:49:15;3.47;;;3.27;;
26686;SDS011;14298;50.900;4.648;2022-12-19T01:51:45;2.73;;;2.63;;
26686;SDS011;14298;50.900;4.648;2022-12-19T01:54:22;3.63;;;3.33;;
26686;SDS011;14298;50.900;4.648;2022-12-19T01:56:53;4.77;;;4.03;;
26686;SDS011;14298;50.900;4.648;2022-12-19T01:59:38;3.57;;;3.37;;
26686;SDS011;14298;50.900;4.648;2022-12-19T02:02:12;3.03;;;2.90;;
26686;SDS011;14298;50.900;4.648;2022-12-19T02:04:41;3.70;;;3.40;;
26686;SDS011;14298;50.900;4.648;2022-12-19T02:07:11;4.20;;;3.90;;
26686;SDS011;14298;50.900;4.648;2022-12-19T02:09:45;3.20;;;3.00;;
26686;SDS011;14298;50.900;4.648;2022-12-19T02:12:15;3.17;;;3.07;;
26686;SDS011;14298;50.900;4.648;2022-12-19T02:14:44;5.17;;;4.10;;
26686;SDS011;14298;50.900;4.648;2022-12-19T02:17:18;4.00;;;3.27;;
26686;SDS011;14298;50.900;4.648;2022-12-19T02:27:48;4.50;;;4.17;;
26686;SDS011;14298;50.900;4.648;2022-12-19T02:30:37;3.67;;;3.27;;
26686;SDS011;14298;50.900;4.648;2022-12-19T02:36:30;3.37;;;2.93;;
26686;SDS011;14298;50.900;4.648;2022-12-19T02:38:58;3.60;;;3.30;;
26686;SDS011;14298;50.900;4.648;2022-12-19T02:41:32;4.17;;;3.80;;
26686;SDS011;14298;50.900;4.648;2022-12-19T02:44:16;3.43;;;3.20;;
26686;SDS011;14298;50.900;4.648;2022-12-19T02:46:49;3.20;;;3.00;;
26686;SDS011;14298;50.900;4.648;2022-12-19T02:49:18;4.73;;;4.33;;
26686;SDS011;14298;50.900;4.648;2022-12-19T02:51:47;5.93;;;5.53;;
26686;SDS011;14298;50.900;4.648;2022-12-19T02:54:15;4.50;;;4.20;;
26686;SDS011;14298;50.900;4.648;2022-12-19T02:56:58;4.47;;;4.27;;
26686;SDS011;14298;50.900;4.648;2022-12-19T02:59:34;3.73;;;3.53;;
26686;SDS011;14298;50.900;4.648;2022-12-19T03:07:51;3.63;;;3.33;;
26686;SDS011;14298;50.900;4.648;2022-12-19T03:13:11;4.20;;;3.80;;
26686;SDS011;14298;50.900;4.648;2022-12-19T03:15:41;3.27;;;3.13;;
26686;SDS011;14298;50.900;4.648;2022-12-19T03:18:10;6.43;;;3.57;;
26686;SDS011;14298;50.900;4.648;2022-12-19T03:23:26;3.43;;;3.13;;
26686;SDS011;14298;50.900;4.648;2022-12-19T03:26:08;4.60;;;3.17;;
26686;SDS011;14298;50.900;4.648;2022-12-19T03:28:41;2.37;;;2.27;;
26686;SDS011;14298;50.900;4.648;2022-12-19T03:31:10;3.30;;;3.07;;
26686;SDS011;14298;50.900;4.648;2022-12-19T03:33:40;2.73;;;2.53;;
26686;SDS011;14298;50.900;4.648;2022-12-19T03:36:13;3.23;;;3.03;;
26686;SDS011;14298;50.900;4.648;2022-12-19T03:38:43;4.07;;;3.77;;
26686;SDS011;14298;50.900;4.648;2022-12-19T03:44:18;2.73;;;2.53;;
26686;SDS011;14298;50.900;4.648;2022-12-19T03:46:57;2.60;;;2.50;;
26686;SDS011;14298;50.900;4.648;2022-12-19T03:49:20;2.80;;;2.67;;
26686;SDS011;14298;50.900;4.648;2022-12-19T03:55:01;5.13;;;4.17;;
26686;SDS011;14298;50.900;4.648;2022-12-19T04:00:35;2.67;;;2.47;;
26686;SDS011;14298;50.900;4.648;2022-12-19T04:03:06;3.00;;;2.80;;
26686;SDS011;14298;50.900;4.648;2022-12-19T04:05:36;3.07;;;2.83;;
26686;SDS011;14298;50.900;4.648;2022-12-19T04:08:07;2.80;;;2.60;;
26686;SDS011;14298;50.900;4.648;2022-12-19T04:10:39;3.03;;;2.73;;
26686;SDS011;14298;50.900;4.648;2022-12-19T04:13:18;2.77;;;2.57;;
26686;SDS011;14298;50.900;4.648;2022-12-19T04:15:49;2.60;;;2.50;;
26686;SDS011;14298;50.900;4.648;2022-12-19T04:18:29;2.67;;;2.50;;
26686;SDS011;14298;50.900;4.648;2022-12-19T04:21:07;3.70;;;3.33;;
26686;SDS011;14298;50.900;4.648;2022-12-19T04:23:38;3.83;;;2.97;;
26686;SDS011;14298;50.900;4.648;2022-12-19T04:26:08;2.23;;;2.13;;
26686;SDS011;14298;50.900;4.648;2022-12-19T04:28:57;3.30;;;3.07;;
26686;SDS011;14298;50.900;4.648;2022-12-19T04:31:22;2.20;;;2.10;;
26686;SDS011;14298;50.900;4.648;2022-12-19T04:33:51;2.97;;;2.40;;
26686;SDS011;14298;50.900;4.648;2022-12-19T04:36:20;2.83;;;2.50;;
26686;SDS011;14298;50.900;4.648;2022-12-19T04:38:48;3.63;;;2.07;;
26686;SDS011;14298;50.900;4.648;2022-12-19T04:41:16;3.30;;;2.53;;
26686;SDS011;14298;50.900;4.648;2022-12-19T04:43:45;2.93;;;2.73;;
26686;SDS011;14298;50.900;4.648;2022-12-19T04:46:13;3.13;;;2.27;;
26686;SDS011;14298;50.900;4.648;2022-12-19T04:48:41;4.00;;;2.47;;
26686;SDS011;14298;50.900;4.648;2022-12-19T04:51:10;2.77;;;2.57;;
26686;SDS011;14298;50.900;4.648;2022-12-19T04:53:38;2.47;;;2.37;;
26686;SDS011;14298;50.900;4.648;2022-12-19T04:56:06;3.87;;;2.87;;
26686;SDS011;14298;50.900;4.648;2022-12-19T04:58:36;2.53;;;2.37;;
26686;SDS011;14298;50.900;4.648;2022-12-19T05:01:04;1.77;;;1.70;;
26686;SDS011;14298;50.900;4.648;2022-12-19T05:03:34;2.53;;;2.33;;
26686;SDS011;14298;50.900;4.648;2022-12-19T05:06:04;2.53;;;2.33;;
26686;SDS011;14298;50.900;4.648;2022-12-19T05:08:34;3.97;;;2.40;;
26686;SDS011;14298;50.900;4.648;2022-12-19T05:11:04;1.87;;;1.77;;
26686;SDS011;14298;50.900;4.648;2022-12-19T05:13:33;3.63;;;2.10;;
26686;SDS011;14298;50.900;4.648;2022-12-19T05:16:03;2.67;;;2.20;;
26686;SDS011;14298;50.900;4.648;2022-12-19T05:18:33;3.43;;;3.23;;
26686;SDS011;14298;50.900;4.648;2022-12-19T05:21:02;3.90;;;2.53;;
26686;SDS011;14298;50.900;4.648;2022-12-19T05:23:31;1.77;;;1.73;;
26686;SDS011;14298;50.900;4.648;2022-12-19T05:26:01;5.23;;;3.07;;
26686;SDS011;14298;50.900;4.648;2022-12-19T05:28:30;1.70;;;1.60;;
26686;SDS011;14298;50.900;4.648;2022-12-19T05:31:03;2.83;;;1.77;;
26686;SDS011;14298;50.900;4.648;2022-12-19T05:33:34;2.20;;;2.00;;
26686;SDS011;14298;50.900;4.648;2022-12-19T05:36:03;2.43;;;2.27;;
26686;SDS011;14298;50.900;4.648;2022-12-19T05:38:31;2.73;;;2.53;;
26686;SDS011;14298;50.900;4.648;2022-12-19T05:41:13;2.73;;;2.53;;
26686;SDS011;14298;50.900;4.648;2022-12-19T05:43:45;2.37;;;2.27;;
26686;SDS011;14298;50.900;4.648;2022-12-19T05:46:15;3.20;;;2.20;;
26686;SDS011;14298;50.900;4.648;2022-12-19T05:48:43;2.30;;;2.10;;
26686;SDS011;14298;50.900;4.648;2022-12-19T05:51:12;1.60;;;1.50;;
26686;SDS011;14298;50.900;4.648;2022-12-19T05:53:40;3.03;;;2.83;;
26686;SDS011;14298;50.900;4.648;2022-12-19T05:58:41;2.93;;;2.60;;
26686;SDS011;14298;50.900;4.648;2022-12-19T06:01:11;1.97;;;1.87;;
26686;SDS011;14298;50.900;4.648;2022-12-19T06:03:44;1.93;;;1.73;;
26686;SDS011;14298;50.900;4.648;2022-12-19T06:09:01;3.40;;;1.73;;
26686;SDS011;14298;50.900;4.648;2022-12-19T06:11:29;2.53;;;2.33;;
26686;SDS011;14298;50.900;4.648;2022-12-19T06:13:57;2.47;;;1.93;;
26686;SDS011;14298;50.900;4.648;2022-12-19T06:16:25;1.63;;;1.53;;
26686;SDS011;14298;50.900;4.648;2022-12-19T06:18:55;1.90;;;1.80;;
26686;SDS011;14298;50.900;4.648;2022-12-19T06:21:23;1.90;;;1.37;;
26686;SDS011;14298;50.900;4.648;2022-12-19T06:23:53;1.63;;;1.53;;
26686;SDS011;14298;50.900;4.648;2022-12-19T06:26:21;2.33;;;2.10;;
26686;SDS011;14298;50.900;4.648;2022-12-19T06:28:50;1.47;;;1.47;;
26686;SDS011;14298;50.900;4.648;2022-12-19T06:31:19;2.10;;;1.80;;
26686;SDS011;14298;50.900;4.648;2022-12-19T06:33:49;1.57;;;1.57;;
26686;SDS011;14298;50.900;4.648;2022-12-19T06:36:19;1.87;;;1.77;;
26686;SDS011;14298;50.900;4.648;2022-12-19T06:38:55;3.40;;;1.67;;
26686;SDS011;14298;50.900;4.648;2022-12-19T06:41:25;2.07;;;1.97;;
26686;SDS011;14298;50.900;4.648;2022-12-19T06:44:12;1.93;;;1.83;;
26686;SDS011;14298;50.900;4.648;2022-12-19T06:46:42;2.57;;;2.37;;
26686;SDS011;14298;50.900;4.648;2022-12-19T06:49:11;2.33;;;1.90;;
26686;SDS011;14298;50.900;4.648;2022-12-19T06:51:42;2.53;;;1.80;;
26686;SDS011;14298;50.900;4.648;2022-12-19T06:54:10;1.67;;;1.57;;
26686;SDS011;14298;50.900;4.648;2022-12-19T06:56:40;1.77;;;1.67;;
26686;SDS011;14298;50.900;4.648;2022-12-19T06:59:13;1.83;;;1.73;;
26686;SDS011;14298;50.900;4.648;2022-12-19T07:04:14;1.40;;;1.30;;
26686;SDS011;14298;50.900;4.648;2022-12-19T07:06:45;2.87;;;1.63;;
26686;SDS011;14298;50.900;4.648;2022-12-19T07:09:14;1.60;;;1.50;;
26686;SDS011;14298;50.900;4.648;2022-12-19T07:11:43;1.97;;;1.87;;
26686;SDS011;14298;50.900;4.648;2022-12-19T07:14:12;1.30;;;1.20;;
26686;SDS011;14298;50.900;4.648;2022-12-19T07:16:40;1.70;;;1.60;;
26686;SDS011;14298;50.900;4.648;2022-12-19T07:19:08;2.00;;;1.90;;
26686;SDS011;14298;50.900;4.648;2022-12-19T07:21:37;1.47;;;1.37;;
26686;SDS011;14298;50.900;4.648;2022-12-19T07:24:06;2.67;;;2.47;;
26686;SDS011;14298;50.900;4.648;2022-12-19T07:26:35;5.43;;;2.20;;
26686;SDS011;14298;50.900;4.648;2022-12-19T07:29:04;1.43;;;1.37;;
26686;SDS011;14298;50.900;4.648;2022-12-19T07:31:32;2.63;;;2.43;;
26686;SDS011;14298;50.900;4.648;2022-12-19T07:34:00;5.30;;;1.83;;
26686;SDS011;14298;50.900;4.648;2022-12-19T07:36:29;1.63;;;1.53;;
26686;SDS011;14298;50.900;4.648;2022-12-19T07:38:57;2.33;;;2.17;;
26686;SDS011;14298;50.900;4.648;2022-12-19T07:41:25;1.93;;;1.77;;
26686;SDS011;14298;50.900;4.648;2022-12-19T07:43:54;1.90;;;1.47;;
26686;SDS011;14298;50.900;4.648;2022-12-19T07:46:22;1.77;;;1.67;;
26686;SDS011;14298;50.900;4.648;2022-12-19T07:48:50;1.20;;;1.17;;
26686;SDS011;14298;50.900;4.648;2022-12-19T07:51:19;2.97;;;1.17;;
26686;SDS011;14298;50.900;4.648;2022-12-19T07:53:47;1.63;;;1.27;;
26686;SDS011;14298;50.900;4.648;2022-12-19T07:56:15;1.30;;;1.23;;
26686;SDS011;14298;50.900;4.648;2022-12-19T07:58:44;3.03;;;2.20;;
26686;SDS011;14298;50.900;4.648;2022-12-19T08:01:12;1.90;;;1.80;;
26686;SDS011;14298;50.900;4.648;2022-12-19T08:03:40;1.80;;;1.70;;
26686;SDS011;14298;50.900;4.648;2022-12-19T08:06:08;0.90;;;0.90;;
26686;SDS011;14298;50.900;4.648;2022-12-19T08:08:37;2.47;;;2.37;;
26686;SDS011;14298;50.900;4.648;2022-12-19T08:11:13;0.97;;;0.97;;
26686;SDS011;14298;50.900;4.648;2022-12-19T08:13:44;1.23;;;1.23;;
26686;SDS011;14298;50.900;4.648;2022-12-19T08:16:14;1.33;;;1.23;;
26686;SDS011;14298;50.900;4.648;2022-12-19T08:18:42;0.97;;;0.97;;
26686;SDS011;14298;50.900;4.648;2022-12-19T08:21:11;5.17;;;1.60;;
26686;SDS011;14298;50.900;4.648;2022-12-19T08:23:40;1.53;;;1.43;;
26686;SDS011;14298;50.900;4.648;2022-12-19T08:26:13;3.20;;;1.70;;
26686;SDS011;14298;50.900;4.648;2022-12-19T08:28:42;1.37;;;1.27;;
26686;SDS011;14298;50.900;4.648;2022-12-19T08:31:13;0.73;;;0.73;;
26686;SDS011;14298;50.900;4.648;2022-12-19T08:33:43;1.60;;;1.40;;
26686;SDS011;14298;50.900;4.648;2022-12-19T08:36:13;1.80;;;1.70;;
26686;SDS011;14298;50.900;4.648;2022-12-19T08:38:44;0.73;;;0.73;;
26686;SDS011;14298;50.900;4.648;2022-12-19T08:41:14;1.30;;;1.20;;
26686;SDS011;14298;50.900;4.648;2022-12-19T08:43:50;2.27;;;1.53;;
26686;SDS011;14298;50.900;4.648;2022-12-19T08:46:19;1.10;;;1.10;;
26686;SDS011;14298;50.900;4.648;2022-12-19T08:48:49;1.40;;;1.30;;
26686;SDS011;14298;50.900;4.648;2022-12-19T08:51:17;1.23;;;1.13;;
26686;SDS011;14298;50.900;4.648;2022-12-19T08:53:47;0.90;;;0.90;;
26686;SDS011;14298;50.900;4.648;2022-12-19T08:56:16;1.73;;;1.63;;
26686;SDS011;14298;50.900;4.648;2022-12-19T08:58:46;0.83;;;0.83;;
26686;SDS011;14298;50.900;4.648;2022-12-19T09:01:18;1.97;;;1.53;;
26686;SDS011;14298;50.900;4.648;2022-12-19T09:03:48;1.37;;;1.27;;
26686;SDS011;14298;50.900;4.648;2022-12-19T09:06:17;1.27;;;1.17;;
26686;SDS011;14298;50.900;4.648;2022-12-19T09:08:45;1.70;;;1.60;;
26686;SDS011;14298;50.900;4.648;2022-12-19T09:11:14;1.83;;;1.73;;
26686;SDS011;14298;50.900;4.648;2022-12-19T09:13:45;1.03;;;1.03;;
26686;SDS011;14298;50.900;4.648;2022-12-19T09:16:15;0.87;;;0.87;;
26686;SDS011;14298;50.900;4.648;2022-12-19T09:18:49;0.77;;;0.77;;
26686;SDS011;14298;50.900;4.648;2022-12-19T09:21:19;1.13;;;1.03;;
26686;SDS011;14298;50.900;4.648;2022-12-19T09:23:49;1.47;;;1.37;;
26686;SDS011;14298;50.900;4.648;2022-12-19T09:26:20;1.87;;;1.50;;
26686;SDS011;14298;50.900;4.648;2022-12-19T09:28:50;1.50;;;1.40;;
26686;SDS011;14298;50.900;4.648;2022-12-19T09:31:20;0.63;;;0.63;;
26686;SDS011;14298;50.900;4.648;2022-12-19T09:33:50;2.50;;;1.13;;
26686;SDS011;14298;50.900;4.648;2022-12-19T09:36:20;1.63;;;1.53;;
26686;SDS011;14298;50.900;4.648;2022-12-19T09:38:54;2.00;;;1.67;;
26686;SDS011;14298;50.900;4.648;2022-12-19T09:46:51;3.13;;;1.70;;
26686;SDS011;14298;50.900;4.648;2022-12-19T09:49:24;1.23;;;1.23;;
26686;SDS011;14298;50.900;4.648;2022-12-19T09:52:02;1.20;;;1.20;;
26686;SDS011;14298;50.900;4.648;2022-12-19T09:54:33;1.53;;;1.17;;
26686;SDS011;14298;50.900;4.648;2022-12-19T09:57:09;0.80;;;0.80;;
26686;SDS011;14298;50.900;4.648;2022-12-19T09:59:45;1.43;;;1.33;;
26686;SDS011;14298;50.900;4.648;2022-12-19T10:05:08;1.00;;;1.00;;
26686;SDS011;14298;50.900;4.648;2022-12-19T10:07:44;1.87;;;1.67;;
26686;SDS011;14298;50.900;4.648;2022-12-19T10:10:13;1.57;;;1.47;;
26686;SDS011;14298;50.900;4.648;2022-12-19T10:13:04;1.17;;;1.10;;
26686;SDS011;14298;50.900;4.648;2022-12-19T10:18:46;1.00;;;1.00;;
26686;SDS011;14298;50.900;4.648;2022-12-19T10:24:09;1.00;;;1.00;;
26686;SDS011;14298;50.900;4.648;2022-12-19T10:26:50;0.97;;;0.97;;
26686;SDS011;14298;50.900;4.648;2022-12-19T10:34:59;0.83;;;0.83;;
26686;SDS011;14298;50.900;4.648;2022-12-19T10:37:29;1.07;;;0.90;;
26686;SDS011;14298;50.900;4.648;2022-12-19T10:40:03;1.00;;;1.00;;
26686;SDS011;14298;50.900;4.648;2022-12-19T10:42:48;0.87;;;0.87;;
26686;SDS011;14298;50.900;4.648;2022-12-19T10:45:19;2.57;;;1.53;;
26686;SDS011;14298;50.900;4.648;2022-12-19T10:47:50;0.80;;;0.80;;
26686;SDS011;14298;50.900;4.648;2022-12-19T10:50:22;1.13;;;1.07;;
26686;SDS011;14298;50.900;4.648;2022-12-19T10:52:54;3.40;;;1.17;;
26686;SDS011;14298;50.900;4.648;2022-12-19T10:58:10;0.50;;;0.50;;
26686;SDS011;14298;50.900;4.648;2022-12-19T11:00:45;0.83;;;0.83;;
26686;SDS011;14298;50.900;4.648;2022-12-19T11:03:15;1.10;;;1.00;;
26686;SDS011;14298;50.900;4.648;2022-12-19T11:05:46;0.83;;;0.83;;
26686;SDS011;14298;50.900;4.648;2022-12-19T11:08:23;0.73;;;0.60;;
26686;SDS011;14298;50.900;4.648;2022-12-19T11:13:39;0.60;;;0.60;;
26686;SDS011;14298;50.900;4.648;2022-12-19T11:16:09;1.17;;;1.07;;
26686;SDS011;14298;50.900;4.648;2022-12-19T11:18:45;0.70;;;0.67;;
26686;SDS011;14298;50.900;4.648;2022-12-19T11:23:55;1.07;;;0.97;;
26686;SDS011;14298;50.900;4.648;2022-12-19T11:29:14;0.90;;;0.90;;
26686;SDS011;14298;50.900;4.648;2022-12-19T11:31:59;0.60;;;0.60;;
26686;SDS011;14298;50.900;4.648;2022-12-19T11:34:32;1.10;;;0.87;;
26686;SDS011;14298;50.900;4.648;2022-12-19T11:42:21;0.53;;;0.53;;
26686;SDS011;14298;50.900;4.648;2022-12-19T11:47:47;1.90;;;0.70;;
26686;SDS011;14298;50.900;4.648;2022-12-19T11:50:25;1.33;;;1.27;;
26686;SDS011;14298;50.900;4.648;2022-12-19T11:53:08;2.97;;;2.70;;
26686;SDS011;14298;50.900;4.648;2022-12-19T11:55:41;2.07;;;1.20;;
26686;SDS011;14298;50.900;4.648;2022-12-19T11:58:10;0.93;;;0.60;;
26686;SDS011;14298;50.900;4.648;2022-12-19T12:00:41;0.40;;;0.40;;
26686;SDS011;14298;50.900;4.648;2022-12-19T12:06:04;0.63;;;0.63;;
26686;SDS011;14298;50.900;4.648;2022-12-19T12:08:39;0.53;;;0.53;;
26686;SDS011;14298;50.900;4.648;2022-12-19T12:14:19;0.60;;;0.60;;
26686;SDS011;14298;50.900;4.648;2022-12-19T12:16:57;2.73;;;0.67;;
26686;SDS011;14298;50.900;4.648;2022-12-19T12:22:50;1.60;;;0.80;;
26686;SDS011;14298;50.900;4.648;2022-12-19T12:25:28;10.07;;;0.90;;
26686;SDS011;14298;50.900;4.648;2022-12-19T12:33:59;0.60;;;0.60;;
26686;SDS011;14298;50.900;4.648;2022-12-19T12:36:39;1.00;;;0.87;;
26686;SDS011;14298;50.900;4.648;2022-12-19T12:39:18;1.33;;;0.73;;
26686;SDS011;14298;50.900;4.648;2022-12-19T12:44:54;2.57;;;0.67;;
26686;SDS011;14298;50.900;4.648;2022-12-19T12:47:25;0.90;;;0.90;;
26686;SDS011;14298;50.900;4.648;2022-12-19T12:50:02;1.10;;;1.00;;
26686;SDS011;14298;50.900;4.648;2022-12-19T12:53:04;0.63;;;0.63;;
26686;SDS011;14298;50.900;4.648;2022-12-19T12:55:25;4.73;;;1.27;;
26686;SDS011;14298;50.900;4.648;2022-12-19T12:57:55;0.80;;;0.80;;
26686;SDS011;14298;50.900;4.648;2022-12-19T13:00:26;0.73;;;0.73;;
26686;SDS011;14298;50.900;4.648;2022-12-19T13:02:57;0.57;;;0.57;;
26686;SDS011;14298;50.900;4.648;2022-12-19T13:11:14;0.67;;;0.63;;
26686;SDS011;14298;50.900;4.648;2022-12-19T13:14:08;0.80;;;0.80;;
26686;SDS011;14298;50.900;4.648;2022-12-19T13:32:32;1.00;;;0.90;;
26686;SDS011;14298;50.900;4.648;2022-12-19T13:37:45;0.63;;;0.63;;
26686;SDS011;14298;50.900;4.648;2022-12-19T13:45:59;0.70;;;0.70;;
26686;SDS011;14298;50.900;4.648;2022-12-19T13:48:30;0.87;;;0.77;;
26686;SDS011;14298;50.900;4.648;2022-12-19T13:51:05;0.40;;;0.40;;
26686;SDS011;14298;50.900;4.648;2022-12-19T13:53:35;0.50;;;0.50;;
26686;SDS011;14298;50.900;4.648;2022-12-19T13:56:05;1.00;;;0.50;;
26686;SDS011;14298;50.900;4.648;2022-12-19T14:04:15;0.33;;;0.33;;
26686;SDS011;14298;50.900;4.648;2022-12-19T14:06:43;0.93;;;0.77;;
26686;SDS011;14298;50.900;4.648;2022-12-19T14:09:21;0.80;;;0.57;;
26686;SDS011;14298;50.900;4.648;2022-12-19T14:12:00;1.07;;;0.90;;
26686;SDS011;14298;50.900;4.648;2022-12-19T14:14:31;1.33;;;1.03;;
26686;SDS011;14298;50.900;4.648;2022-12-19T14:17:18;0.40;;;0.40;;
26686;SDS011;14298;50.900;4.648;2022-12-19T14:19:49;0.77;;;0.77;;
26686;SDS011;14298;50.900;4.648;2022-12-19T14:22:20;0.50;;;0.50;;
26686;SDS011;14298;50.900;4.648;2022-12-19T14:24:58;0.97;;;0.97;;
26686;SDS011;14298;50.900;4.648;2022-12-19T14:30:18;1.13;;;0.70;;
26686;SDS011;14298;50.900;4.648;2022-12-19T14:32:50;2.13;;;1.20;;
26686;SDS011;14298;50.900;4.648;2022-12-19T14:35:20;0.50;;;0.50;;
26686;SDS011;14298;50.900;4.648;2022-12-19T14:37:57;0.77;;;0.77;;
26686;SDS011;14298;50.900;4.648;2022-12-19T14:40:29;1.67;;;0.80;;
26686;SDS011;14298;50.900;4.648;2022-12-19T14:42:59;0.70;;;0.70;;
26686;SDS011;14298;50.900;4.648;2022-12-19T14:48:50;0.53;;;0.53;;
26686;SDS011;14298;50.900;4.648;2022-12-19T14:51:33;1.03;;;0.90;;
26686;SDS011;14298;50.900;4.648;2022-12-19T14:54:20;0.53;;;0.53;;
26686;SDS011;14298;50.900;4.648;2022-12-19T14:56:58;1.00;;;1.00;;
26686;SDS011;14298;50.900;4.648;2022-12-19T15:02:21;1.13;;;1.00;;
26686;SDS011;14298;50.900;4.648;2022-12-19T15:05:06;8.30;;;0.90;;
26686;SDS011;14298;50.900;4.648;2022-12-19T15:07:53;0.90;;;0.90;;
26686;SDS011;14298;50.900;4.648;2022-12-19T15:10:24;0.80;;;0.80;;
26686;SDS011;14298;50.900;4.648;2022-12-19T15:15:51;0.60;;;0.60;;
26686;SDS011;14298;50.900;4.648;2022-12-19T15:18:24;1.40;;;0.83;;
26686;SDS011;14298;50.900;4.648;2022-12-19T15:23:48;0.77;;;0.77;;
26686;SDS011;14298;50.900;4.648;2022-12-19T15:26:18;3.80;;;0.80;;
26686;SDS011;14298;50.900;4.648;2022-12-19T15:28:48;1.00;;;1.00;;
26686;SDS011;14298;50.900;4.648;2022-12-19T15:34:25;0.60;;;0.60;;
26686;SDS011;14298;50.900;4.648;2022-12-19T15:36:56;1.27;;;1.00;;
26686;SDS011;14298;50.900;4.648;2022-12-19T15:39:24;1.53;;;1.43;;
26686;SDS011;14298;50.900;4.648;2022-12-19T15:41:55;1.23;;;1.17;;
26686;SDS011;14298;50.900;4.648;2022-12-19T15:44:35;1.07;;;1.00;;
26686;SDS011;14298;50.900;4.648;2022-12-19T15:47:29;0.53;;;0.53;;
26686;SDS011;14298;50.900;4.648;2022-12-19T15:49:59;0.40;;;0.40;;
26686;SDS011;14298;50.900;4.648;2022-12-19T15:52:30;0.73;;;0.73;;
26686;SDS011;14298;50.900;4.648;2022-12-19T15:57:47;5.10;;;1.37;;
26686;SDS011;14298;50.900;4.648;2022-12-19T16:03:09;0.53;;;0.53;;
26686;SDS011;14298;50.900;4.648;2022-12-19T16:05:39;1.00;;;0.93;;
26686;SDS011;14298;50.900;4.648;2022-12-19T16:08:13;0.80;;;0.73;;
26686;SDS011;14298;50.900;4.648;2022-12-19T16:10:49;0.70;;;0.70;;
26686;SDS011;14298;50.900;4.648;2022-12-19T16:13:23;0.73;;;0.73;;
26686;SDS011;14298;50.900;4.648;2022-12-19T16:15:53;1.13;;;1.00;;
26686;SDS011;14298;50.900;4.648;2022-12-19T16:18:22;0.93;;;0.93;;
26686;SDS011;14298;50.900;4.648;2022-12-19T16:20:50;1.07;;;1.03;;
26686;SDS011;14298;50.900;4.648;2022-12-19T16:23:19;0.97;;;0.97;;
26686;SDS011;14298;50.900;4.648;2022-12-19T16:25:49;0.73;;;0.73;;
26686;SDS011;14298;50.900;4.648;2022-12-19T16:28:28;0.80;;;0.80;;
26686;SDS011;14298;50.900;4.648;2022-12-19T16:33:48;1.10;;;1.00;;
26686;SDS011;14298;50.900;4.648;2022-12-19T16:36:17;8.03;;;0.90;;
26686;SDS011;14298;50.900;4.648;2022-12-19T16:38:46;1.07;;;0.97;;
26686;SDS011;14298;50.900;4.648;2022-12-19T16:41:23;0.87;;;0.87;;
26686;SDS011;14298;50.900;4.648;2022-12-19T16:43:49;0.77;;;0.73;;
26686;SDS011;14298;50.900;4.648;2022-12-19T16:46:18;5.03;;;1.23;;
26686;SDS011;14298;50.900;4.648;2022-12-19T16:48:49;2.33;;;0.90;;
26686;SDS011;14298;50.900;4.648;2022-12-19T16:51:23;1.83;;;0.90;;
26686;SDS011;14298;50.900;4.648;2022-12-19T16:53:49;1.40;;;0.67;;
26686;SDS011;14298;50.900;4.648;2022-12-19T16:59:12;0.70;;;0.70;;
26686;SDS011;14298;50.900;4.648;2022-12-19T17:01:59;0.43;;;0.43;;
26686;SDS011;14298;50.900;4.648;2022-12-19T17:04:28;0.73;;;0.73;;
26686;SDS011;14298;50.900;4.648;2022-12-19T17:06:57;0.93;;;0.80;;
26686;SDS011;14298;50.900;4.648;2022-12-19T17:09:25;0.70;;;0.70;;
26686;SDS011;14298;50.900;4.648;2022-12-19T17:11:57;0.50;;;0.50;;
26686;SDS011;14298;50.900;4.648;2022-12-19T17:14:28;0.83;;;0.83;;
26686;SDS011;14298;50.900;4.648;2022-12-19T17:16:58;5.60;;;0.97;;
26686;SDS011;14298;50.900;4.648;2022-12-19T17:19:35;0.90;;;0.90;;
26686;SDS011;14298;50.900;4.648;2022-12-19T17:22:15;0.77;;;0.77;;
26686;SDS011;14298;50.900;4.648;2022-12-19T17:24:38;0.77;;;0.77;;
26686;SDS011;14298;50.900;4.648;2022-12-19T17:27:06;0.53;;;0.53;;
26686;SDS011;14298;50.900;4.648;2022-12-19T17:32:22;0.37;;;0.37;;
26686;SDS011;14298;50.900;4.648;2022-12-19T17:34:51;1.10;;;1.00;;
26686;SDS011;14298;50.900;4.648;2022-12-19T17:37:19;1.60;;;1.50;;
26686;SDS011;14298;50.900;4.648;2022-12-19T17:39:48;0.93;;;0.93;;
26686;SDS011;14298;50.900;4.648;2022-12-19T17:42:21;0.77;;;0.57;;
26686;SDS011;14298;50.900;4.648;2022-12-19T17:44:50;0.77;;;0.77;;
26686;SDS011;14298;50.900;4.648;2022-12-19T17:47:19;0.77;;;0.77;;
26686;SDS011;14298;50.900;4.648;2022-12-19T17:49:47;0.67;;;0.67;;
26686;SDS011;14298;50.900;4.648;2022-12-19T17:52:17;1.33;;;0.90;;
26686;SDS011;14298;50.900;4.648;2022-12-19T17:54:46;1.63;;;0.97;;
26686;SDS011;14298;50.900;4.648;2022-12-19T17:57:15;0.30;;;0.30;;
26686;SDS011;14298;50.900;4.648;2022-12-19T17:59:44;0.67;;;0.67;;
26686;SDS011;14298;50.900;4.648;2022-12-19T18:02:19;0.53;;;0.53;;